sensor_id;sensor_type;location;lat;lon;timestamp;pressure;altitude;pressure_sealevel;temperature;humidity
27144;BME280;14672;50.250;8.312;2022-11-11T00:00:33;100253.66;;;9.27;65.93
27144;BME280;14672;50.250;8.312;2022-11-11T00:02:59;100256.88;;;9.29;65.01
27144;BME280;14672;50.250;8.312;2022-11-11T00:05:27;100263.41;;;9.23;65.77
27144;BME280;14672;50.250;8.312;2022-11-11T00:07:56;100262.19;;;9.27;65.90
27144;BME280;14672;50.250;8.312;2022-11-11T00:10:29;100266.66;;;9.21;66.30
27144;BME280;14672;50.250;8.312;2022-11-11T00:13:03;100274.78;;;9.19;66.31
27144;BME280;14672;50.250;8.312;2022-11-11T00:15:30;100280.06;;;9.17;66.41
27144;BME280;14672;50.250;8.312;2022-11-11T00:17:57;100275.59;;;9.16;65.84
27144;BME280;14672;50.250;8.312;2022-11-11T00:20:42;100277.28;;;9.10;66.29
27144;BME280;14672;50.250;8.312;2022-11-11T00:23:27;100285.38;;;9.08;65.71
27144;BME280;14672;50.250;8.312;2022-11-11T00:26:13;100279.75;;;9.01;64.78
27144;BME280;14672;50.250;8.312;2022-11-11T00:28:40;100277.72;;;9.02;65.76
27144;BME280;14672;50.250;8.312;2022-11-11T00:31:09;100286.31;;;8.91;64.96
27144;BME280;14672;50.250;8.312;2022-11-11T00:33:37;100283.88;;;8.89;65.53
27144;BME280;14672;50.250;8.312;2022-11-11T00:36:04;100281.00;;;8.93;66.27
27144;BME280;14672;50.250;8.312;2022-11-11T00:38:30;100287.50;;;8.90;65.85
27144;BME280;14672;50.250;8.312;2022-11-11T00:41:22;100287.56;;;8.79;65.70
27144;BME280;14672;50.250;8.312;2022-11-11T00:43:48;100293.66;;;8.78;65.52
27144;BME280;14672;50.250;8.312;2022-11-11T00:46:15;100278.31;;;8.72;65.87
27144;BME280;14672;50.250;8.312;2022-11-11T00:49:00;100288.34;;;8.80;66.02
27144;BME280;14672;50.250;8.312;2022-11-11T00:51:44;100293.28;;;8.69;65.90
27144;BME280;14672;50.250;8.312;2022-11-11T00:54:11;100291.25;;;8.69;66.19
27144;BME280;14672;50.250;8.312;2022-11-11T00:56:37;100289.63;;;8.75;65.22
27144;BME280;14672;50.250;8.312;2022-11-11T00:59:05;100280.34;;;8.64;65.85
27144;BME280;14672;50.250;8.312;2022-11-11T01:01:34;100285.59;;;8.69;65.69
27144;BME280;14672;50.250;8.312;2022-11-11T01:04:03;100288.41;;;8.69;65.50
27144;BME280;14672;50.250;8.312;2022-11-11T01:06:28;100283.59;;;8.66;65.89
27144;BME280;14672;50.250;8.312;2022-11-11T01:08:54;100277.53;;;8.68;65.54
27144;BME280;14672;50.250;8.312;2022-11-11T01:11:23;100265.38;;;8.67;66.58
27144;BME280;14672;50.250;8.312;2022-11-11T01:13:50;100245.06;;;8.76;66.32
27144;BME280;14672;50.250;8.312;2022-11-11T01:16:23;100241.88;;;8.70;66.59
27144;BME280;14672;50.250;8.312;2022-11-11T01:18:50;100256.00;;;8.77;66.93
27144;BME280;14672;50.250;8.312;2022-11-11T01:21:21;100248.34;;;8.71;66.62
27144;BME280;14672;50.250;8.312;2022-11-11T01:23:48;100253.22;;;8.70;67.36
27144;BME280;14672;50.250;8.312;2022-11-11T01:26:23;100254.03;;;8.71;67.17
27144;BME280;14672;50.250;8.312;2022-11-11T01:28:52;100254.38;;;8.76;67.00
27144;BME280;14672;50.250;8.312;2022-11-11T01:31:20;100259.28;;;8.69;67.35
27144;BME280;14672;50.250;8.312;2022-11-11T01:33:47;100262.91;;;8.73;67.32
27144;BME280;14672;50.250;8.312;2022-11-11T01:36:16;100263.69;;;8.77;67.63
27144;BME280;14672;50.250;8.312;2022-11-11T01:38:42;100261.66;;;8.81;67.41
27144;BME280;14672;50.250;8.312;2022-11-11T01:41:12;100270.16;;;8.81;67.40
27144;BME280;14672;50.250;8.312;2022-11-11T01:54:42;100260.91;;;8.70;66.99
27144;BME280;14672;50.250;8.312;2022-11-11T01:59:46;100252.31;;;8.84;67.17
27144;BME280;14672;50.250;8.312;2022-11-11T02:02:24;100247.47;;;8.81;67.65
27144;BME280;14672;50.250;8.312;2022-11-11T02:04:51;100245.06;;;8.76;67.99
27144;BME280;14672;50.250;8.312;2022-11-11T02:07:37;100248.69;;;8.80;67.11
27144;BME280;14672;50.250;8.312;2022-11-11T02:10:07;100238.63;;;8.75;67.61
27144;BME280;14672;50.250;8.312;2022-11-11T02:12:33;100242.59;;;8.85;67.36
27144;BME280;14672;50.250;8.312;2022-11-11T02:15:18;100248.22;;;8.88;67.69
27144;BME280;14672;50.250;8.312;2022-11-11T02:17:47;100256.41;;;8.79;67.05
27144;BME280;14672;50.250;8.312;2022-11-11T02:20:18;100254.75;;;8.85;66.95
27144;BME280;14672;50.250;8.312;2022-11-11T02:22:55;100257.59;;;8.82;68.28
27144;BME280;14672;50.250;8.312;2022-11-11T02:25:26;100257.63;;;8.78;67.07
27144;BME280;14672;50.250;8.312;2022-11-11T02:27:58;100268.53;;;8.83;67.38
27144;BME280;14672;50.250;8.312;2022-11-11T02:30:26;100267.34;;;8.74;66.53
27144;BME280;14672;50.250;8.312;2022-11-11T02:32:53;100279.06;;;8.76;67.25
27144;BME280;14672;50.250;8.312;2022-11-11T02:35:29;100284.72;;;8.83;67.40
27144;BME280;14672;50.250;8.312;2022-11-11T02:37:55;100280.66;;;8.80;66.23
27144;BME280;14672;50.250;8.312;2022-11-11T02:40:42;100284.72;;;8.76;65.80
27144;BME280;14672;50.250;8.312;2022-11-11T02:43:28;100285.59;;;8.66;65.96
27144;BME280;14672;50.250;8.312;2022-11-11T02:45:54;100290.06;;;8.67;67.35
27144;BME280;14672;50.250;8.312;2022-11-11T02:48:21;100293.69;;;8.67;66.59
27144;BME280;14672;50.250;8.312;2022-11-11T02:50:47;100296.09;;;8.69;66.78
27144;BME280;14672;50.250;8.312;2022-11-11T02:53:13;100301.03;;;8.58;66.58
27144;BME280;14672;50.250;8.312;2022-11-11T02:55:39;100299.41;;;8.57;65.57
27144;BME280;14672;50.250;8.312;2022-11-11T02:58:05;100312.31;;;8.65;65.66
27144;BME280;14672;50.250;8.312;2022-11-11T03:00:31;100309.06;;;8.70;66.24
27144;BME280;14672;50.250;8.312;2022-11-11T03:02:56;100320.44;;;8.63;66.22
27144;BME280;14672;50.250;8.312;2022-11-11T03:05:22;100318.03;;;8.54;66.14
27144;BME280;14672;50.250;8.312;2022-11-11T03:07:48;100328.16;;;8.44;66.32
27144;BME280;14672;50.250;8.312;2022-11-11T03:10:15;100316.84;;;8.44;66.33
27144;BME280;14672;50.250;8.312;2022-11-11T03:12:41;100322.53;;;8.37;66.39
27144;BME280;14672;50.250;8.312;2022-11-11T03:15:07;100314.81;;;8.41;65.54
27144;BME280;14672;50.250;8.312;2022-11-11T03:17:33;100311.97;;;8.48;66.30
27144;BME280;14672;50.250;8.312;2022-11-11T03:20:16;100311.63;;;8.39;66.46
27144;BME280;14672;50.250;8.312;2022-11-11T03:23:14;100303.13;;;8.32;66.27
27144;BME280;14672;50.250;8.312;2022-11-11T03:25:46;100307.16;;;8.28;65.94
27144;BME280;14672;50.250;8.312;2022-11-11T03:28:17;100314.88;;;8.31;66.14
27144;BME280;14672;50.250;8.312;2022-11-11T03:30:47;100305.94;;;8.25;66.22
27144;BME280;14672;50.250;8.312;2022-11-11T03:33:14;100310.00;;;8.14;65.74
27144;BME280;14672;50.250;8.312;2022-11-11T03:35:40;100307.16;;;8.21;66.15
27144;BME280;14672;50.250;8.312;2022-11-11T03:38:10;100313.25;;;8.19;66.21
27144;BME280;14672;50.250;8.312;2022-11-11T03:40:55;100309.63;;;8.15;66.47
27144;BME280;14672;50.250;8.312;2022-11-11T03:43:24;100318.50;;;8.17;66.75
27144;BME280;14672;50.250;8.312;2022-11-11T03:45:52;100322.13;;;8.21;66.82
27144;BME280;14672;50.250;8.312;2022-11-11T03:48:19;100321.72;;;8.23;66.37
27144;BME280;14672;50.250;8.312;2022-11-11T03:50:49;100325.38;;;8.27;66.61
27144;BME280;14672;50.250;8.312;2022-11-11T03:53:17;100318.47;;;8.21;66.50
27144;BME280;14672;50.250;8.312;2022-11-11T03:55:45;100322.53;;;8.16;66.78
27144;BME280;14672;50.250;8.312;2022-11-11T03:58:11;100325.00;;;8.07;65.52
27144;BME280;14672;50.250;8.312;2022-11-11T04:00:37;100327.00;;;8.10;66.90
27144;BME280;14672;50.250;8.312;2022-11-11T04:03:21;100322.53;;;8.13;66.65
27144;BME280;14672;50.250;8.312;2022-11-11T04:06:09;100328.22;;;8.06;66.52
27144;BME280;14672;50.250;8.312;2022-11-11T04:08:54;100330.25;;;8.05;67.16
27144;BME280;14672;50.250;8.312;2022-11-11T04:11:43;100327.81;;;8.14;66.71
27144;BME280;14672;50.250;8.312;2022-11-11T04:14:12;100330.22;;;8.12;67.86
27144;BME280;14672;50.250;8.312;2022-11-11T04:16:57;100318.09;;;8.15;66.17
27144;BME280;14672;50.250;8.312;2022-11-11T04:19:23;100320.94;;;8.04;65.49
27144;BME280;14672;50.250;8.312;2022-11-11T04:22:08;100318.94;;;7.98;65.55
27144;BME280;14672;50.250;8.312;2022-11-11T04:24:34;100320.13;;;8.00;66.63
27144;BME280;14672;50.250;8.312;2022-11-11T04:27:19;100321.78;;;7.98;66.06
27144;BME280;14672;50.250;8.312;2022-11-11T04:29:45;100314.09;;;7.95;65.83
27144;BME280;14672;50.250;8.312;2022-11-11T04:32:19;100311.66;;;7.93;66.73
27144;BME280;14672;50.250;8.312;2022-11-11T04:35:11;100313.69;;;7.89;66.21
27144;BME280;14672;50.250;8.312;2022-11-11T04:37:48;100306.00;;;7.93;66.54
27144;BME280;14672;50.250;8.312;2022-11-11T04:40:36;100312.50;;;7.87;66.14
27144;BME280;14672;50.250;8.312;2022-11-11T04:43:21;100310.84;;;7.93;67.65
27144;BME280;14672;50.250;8.312;2022-11-11T04:45:46;100306.00;;;7.93;67.02
27144;BME280;14672;50.250;8.312;2022-11-11T04:48:12;100305.97;;;8.00;67.36
27144;BME280;14672;50.250;8.312;2022-11-11T04:50:43;100313.25;;;8.09;68.24
27144;BME280;14672;50.250;8.312;2022-11-11T04:53:11;100314.47;;;8.11;67.51
27144;BME280;14672;50.250;8.312;2022-11-11T04:55:38;100313.25;;;8.09;68.00
27144;BME280;14672;50.250;8.312;2022-11-11T04:58:26;100310.03;;;8.10;68.02
27144;BME280;14672;50.250;8.312;2022-11-11T05:00:52;100321.34;;;8.14;67.61
27144;BME280;14672;50.250;8.312;2022-11-11T05:03:19;100318.91;;;8.19;68.57
27144;BME280;14672;50.250;8.312;2022-11-11T05:05:59;100316.50;;;8.14;67.99
27144;BME280;14672;50.250;8.312;2022-11-11T05:08:46;100322.94;;;8.18;68.01
27144;BME280;14672;50.250;8.312;2022-11-11T05:11:35;100315.66;;;8.21;67.66
27144;BME280;14672;50.250;8.312;2022-11-11T05:14:05;100315.66;;;8.17;67.94
27144;BME280;14672;50.250;8.312;2022-11-11T05:16:56;100322.97;;;8.11;66.84
27144;BME280;14672;50.250;8.312;2022-11-11T05:19:41;100315.31;;;8.08;68.03
27144;BME280;14672;50.250;8.312;2022-11-11T05:22:33;100305.19;;;8.11;67.56
27144;BME280;14672;50.250;8.312;2022-11-11T05:25:00;100309.19;;;8.13;66.72
27144;BME280;14672;50.250;8.312;2022-11-11T05:27:45;100312.47;;;8.01;66.47
27144;BME280;14672;50.250;8.312;2022-11-11T05:30:13;100314.88;;;8.06;66.52
27144;BME280;14672;50.250;8.312;2022-11-11T05:32:40;100310.06;;;7.99;66.96
27144;BME280;14672;50.250;8.312;2022-11-11T05:35:08;100307.59;;;8.09;68.43
27144;BME280;14672;50.250;8.312;2022-11-11T05:37:34;100303.56;;;8.06;67.70
27144;BME280;14672;50.250;8.312;2022-11-11T05:40:00;100306.78;;;8.01;66.75
27144;BME280;14672;50.250;8.312;2022-11-11T05:42:26;100328.63;;;8.11;66.98
27144;BME280;14672;50.250;8.312;2022-11-11T05:44:52;100321.34;;;8.07;67.21
27144;BME280;14672;50.250;8.312;2022-11-11T05:47:18;100326.22;;;8.06;67.89
27144;BME280;14672;50.250;8.312;2022-11-11T05:49:44;100335.09;;;8.12;67.30
27144;BME280;14672;50.250;8.312;2022-11-11T05:52:12;100329.44;;;8.08;68.02
27144;BME280;14672;50.250;8.312;2022-11-11T05:54:38;100341.56;;;8.05;67.67
27144;BME280;14672;50.250;8.312;2022-11-11T05:57:04;100352.06;;;8.15;67.76
27144;BME280;14672;50.250;8.312;2022-11-11T05:59:30;100352.47;;;8.17;68.38
27144;BME280;14672;50.250;8.312;2022-11-11T06:01:57;100358.13;;;8.17;68.79
27144;BME280;14672;50.250;8.312;2022-11-11T06:04:23;100365.41;;;8.18;67.79
27144;BME280;14672;50.250;8.312;2022-11-11T06:06:49;100367.03;;;8.19;68.69
27144;BME280;14672;50.250;8.312;2022-11-11T06:09:15;100367.44;;;8.14;68.24
27144;BME280;14672;50.250;8.312;2022-11-11T06:11:41;100379.16;;;8.06;67.84
27144;BME280;14672;50.250;8.312;2022-11-11T06:14:07;100378.34;;;8.05;67.38
27144;BME280;14672;50.250;8.312;2022-11-11T06:16:33;100380.41;;;8.08;66.21
27144;BME280;14672;50.250;8.312;2022-11-11T06:18:59;100374.75;;;8.08;66.22
27144;BME280;14672;50.250;8.312;2022-11-11T06:21:26;100386.03;;;8.01;66.14
27144;BME280;14672;50.250;8.312;2022-11-11T06:23:51;100380.78;;;8.07;65.78
27144;BME280;14672;50.250;8.312;2022-11-11T06:26:18;100375.13;;;7.89;65.90
27144;BME280;14672;50.250;8.312;2022-11-11T06:31:20;100390.47;;;7.81;65.40
27144;BME280;14672;50.250;8.312;2022-11-11T06:33:47;100385.25;;;7.83;65.83
27144;BME280;14672;50.250;8.312;2022-11-11T06:36:16;100377.16;;;7.78;65.60
27144;BME280;14672;50.250;8.312;2022-11-11T06:38:42;100388.47;;;7.71;65.56
27144;BME280;14672;50.250;8.312;2022-11-11T06:41:10;100380.38;;;7.73;65.11
27144;BME280;14672;50.250;8.312;2022-11-11T06:43:41;100382.81;;;7.71;65.17
27144;BME280;14672;50.250;8.312;2022-11-11T06:46:22;100385.22;;;7.65;65.25
27144;BME280;14672;50.250;8.312;2022-11-11T06:48:49;100393.69;;;7.58;65.17
27144;BME280;14672;50.250;8.312;2022-11-11T06:51:15;100396.94;;;7.71;65.10
27144;BME280;14672;50.250;8.312;2022-11-11T06:53:42;100400.59;;;7.71;65.41
27144;BME280;14672;50.250;8.312;2022-11-11T06:56:08;100396.53;;;7.65;65.52
27144;BME280;14672;50.250;8.312;2022-11-11T06:58:35;100400.56;;;7.57;65.48
27144;BME280;14672;50.250;8.312;2022-11-11T07:01:04;100398.97;;;7.60;66.26
27144;BME280;14672;50.250;8.312;2022-11-11T07:03:32;100399.34;;;7.54;66.57
27144;BME280;14672;50.250;8.312;2022-11-11T07:06:03;100392.06;;;7.57;66.23
27144;BME280;14672;50.250;8.312;2022-11-11T07:08:30;100390.88;;;7.54;66.56
27144;BME280;14672;50.250;8.312;2022-11-11T07:10:56;100392.09;;;7.68;67.06
27144;BME280;14672;50.250;8.312;2022-11-11T07:13:22;100398.56;;;7.75;66.61
27144;BME280;14672;50.250;8.312;2022-11-11T07:15:48;100398.16;;;7.70;67.09
27144;BME280;14672;50.250;8.312;2022-11-11T07:18:14;100395.75;;;7.82;66.84
27144;BME280;14672;50.250;8.312;2022-11-11T07:20:40;100398.56;;;7.79;67.21
27144;BME280;14672;50.250;8.312;2022-11-11T07:23:07;100402.22;;;7.90;67.52
27144;BME280;14672;50.250;8.312;2022-11-11T07:25:33;100402.22;;;7.90;67.42
27144;BME280;14672;50.250;8.312;2022-11-11T07:27:59;100407.47;;;7.98;68.64
27144;BME280;14672;50.250;8.312;2022-11-11T07:30:25;100414.38;;;8.08;68.69
27144;BME280;14672;50.250;8.312;2022-11-11T07:32:52;100409.91;;;8.14;69.36
27144;BME280;14672;50.250;8.312;2022-11-11T07:35:20;100417.56;;;8.24;69.79
27144;BME280;14672;50.250;8.312;2022-11-11T07:37:46;100413.97;;;8.31;69.86
27144;BME280;14672;50.250;8.312;2022-11-11T07:40:15;100418.00;;;8.37;70.06
27144;BME280;14672;50.250;8.312;2022-11-11T07:42:42;100426.47;;;8.40;69.88
27144;BME280;14672;50.250;8.312;2022-11-11T07:45:10;100424.88;;;8.46;70.02
27144;BME280;14672;50.250;8.312;2022-11-11T07:47:37;100429.69;;;8.57;70.24
27144;BME280;14672;50.250;8.312;2022-11-11T07:50:05;100438.59;;;8.66;70.33
27144;BME280;14672;50.250;8.312;2022-11-11T07:52:32;100434.53;;;8.74;70.12
27144;BME280;14672;50.250;8.312;2022-11-11T07:54:58;100440.16;;;8.88;70.71
27144;BME280;14672;50.250;8.312;2022-11-11T07:57:23;100438.91;;;9.00;70.96
27144;BME280;14672;50.250;8.312;2022-11-11T07:59:49;100451.44;;;9.09;71.28
27144;BME280;14672;50.250;8.312;2022-11-11T08:02:16;100449.00;;;9.15;69.93
27144;BME280;14672;50.250;8.312;2022-11-11T08:04:41;100438.44;;;9.19;69.04
27144;BME280;14672;50.250;8.312;2022-11-11T08:07:08;100444.09;;;9.22;69.19
27144;BME280;14672;50.250;8.312;2022-11-11T08:09:34;100446.50;;;9.31;68.92
27144;BME280;14672;50.250;8.312;2022-11-11T08:12:00;100444.00;;;9.36;68.80
27144;BME280;14672;50.250;8.312;2022-11-11T08:14:44;100452.16;;;9.34;68.00
27144;BME280;14672;50.250;8.312;2022-11-11T08:17:10;100454.53;;;9.39;67.80
27144;BME280;14672;50.250;8.312;2022-11-11T08:19:35;100458.56;;;9.46;67.51
27144;BME280;14672;50.250;8.312;2022-11-11T08:22:02;100453.69;;;9.50;67.80
27144;BME280;14672;50.250;8.312;2022-11-11T08:24:29;100446.75;;;9.58;67.44
27144;BME280;14672;50.250;8.312;2022-11-11T08:26:55;100454.41;;;9.64;67.42
27144;BME280;14672;50.250;8.312;2022-11-11T08:29:22;100453.13;;;9.76;68.15
27144;BME280;14672;50.250;8.312;2022-11-11T08:31:47;100453.75;;;10.01;68.87
27144;BME280;14672;50.250;8.312;2022-11-11T08:34:13;100446.97;;;10.40;71.89
27144;BME280;14672;50.250;8.312;2022-11-11T08:36:39;100441.66;;;10.86;73.83
27144;BME280;14672;50.250;8.312;2022-11-11T08:39:06;100439.84;;;11.37;72.21
27144;BME280;14672;50.250;8.312;2022-11-11T08:41:31;100428.88;;;11.65;71.30
27144;BME280;14672;50.250;8.312;2022-11-11T08:43:58;100433.09;;;11.84;71.91
27144;BME280;14672;50.250;8.312;2022-11-11T08:46:26;100426.97;;;12.36;69.93
27144;BME280;14672;50.250;8.312;2022-11-11T08:48:51;100420.63;;;12.71;69.38
27144;BME280;14672;50.250;8.312;2022-11-11T08:51:18;100415.50;;;13.45;66.93
27144;BME280;14672;50.250;8.312;2022-11-11T08:53:44;100417.66;;;13.77;65.84
27144;BME280;14672;50.250;8.312;2022-11-11T08:56:10;100419.47;;;14.19;64.94
27144;BME280;14672;50.250;8.312;2022-11-11T08:58:37;100411.72;;;14.52;63.52
27144;BME280;14672;50.250;8.312;2022-11-11T09:01:03;100412.78;;;15.03;62.23
27144;BME280;14672;50.250;8.312;2022-11-11T09:03:30;100410.81;;;15.41;60.81
27144;BME280;14672;50.250;8.312;2022-11-11T09:05:56;100421.00;;;15.30;61.45
27144;BME280;14672;50.250;8.312;2022-11-11T09:08:22;100415.59;;;15.61;60.79
27144;BME280;14672;50.250;8.312;2022-11-11T09:10:48;100416.66;;;15.38;61.39
27144;BME280;14672;50.250;8.312;2022-11-11T09:13:14;100424.72;;;15.14;61.82
27144;BME280;14672;50.250;8.312;2022-11-11T09:15:39;100424.19;;;14.74;62.57
27144;BME280;14672;50.250;8.312;2022-11-11T09:18:05;100416.88;;;14.57;63.02
27144;BME280;14672;50.250;8.312;2022-11-11T09:20:31;100420.50;;;14.45;64.01
27144;BME280;14672;50.250;8.312;2022-11-11T09:22:57;100422.78;;;14.34;64.52
27144;BME280;14672;50.250;8.312;2022-11-11T09:25:22;100414.03;;;14.25;65.40
27144;BME280;14672;50.250;8.312;2022-11-11T09:27:57;100427.56;;;14.40;65.27
27144;BME280;14672;50.250;8.312;2022-11-11T09:30:25;100419.31;;;14.42;64.58
27144;BME280;14672;50.250;8.312;2022-11-11T09:32:51;100436.00;;;14.28;65.37
27144;BME280;14672;50.250;8.312;2022-11-11T09:35:18;100431.19;;;14.25;64.96
27144;BME280;14672;50.250;8.312;2022-11-11T09:37:58;100425.13;;;14.39;64.77
27144;BME280;14672;50.250;8.312;2022-11-11T09:40:27;100428.81;;;14.39;64.95
27144;BME280;14672;50.250;8.312;2022-11-11T09:49:25;100426.72;;;14.72;63.85
27144;BME280;14672;50.250;8.312;2022-11-11T09:52:16;100433.13;;;14.92;63.75
27144;BME280;14672;50.250;8.312;2022-11-11T09:54:57;100427.69;;;15.11;63.89
27144;BME280;14672;50.250;8.312;2022-11-11T09:57:43;100422.59;;;15.31;63.08
27144;BME280;14672;50.250;8.312;2022-11-11T10:00:29;100420.06;;;15.33;63.18
27144;BME280;14672;50.250;8.312;2022-11-11T10:03:17;100418.69;;;15.54;61.94
27144;BME280;14672;50.250;8.312;2022-11-11T10:06:08;100428.22;;;15.88;61.80
27144;BME280;14672;50.250;8.312;2022-11-11T10:09:02;100418.28;;;16.06;60.63
27144;BME280;14672;50.250;8.312;2022-11-11T10:12:11;100420.00;;;15.90;61.20
27144;BME280;14672;50.250;8.312;2022-11-11T10:14:41;100413.78;;;16.30;60.66
27144;BME280;14672;50.250;8.312;2022-11-11T10:17:39;100416.03;;;16.60;60.00
27144;BME280;14672;50.250;8.312;2022-11-11T10:20:28;100411.97;;;16.83;59.36
27144;BME280;14672;50.250;8.312;2022-11-11T10:23:24;100421.69;;;16.98;58.37
27144;BME280;14672;50.250;8.312;2022-11-11T10:25:54;100417.81;;;17.14;58.12
27144;BME280;14672;50.250;8.312;2022-11-11T10:28:28;100421.91;;;17.25;58.04
27144;BME280;14672;50.250;8.312;2022-11-11T10:30:56;100412.66;;;17.52;57.35
27144;BME280;14672;50.250;8.312;2022-11-11T10:36:17;100424.16;;;17.09;57.32
27144;BME280;14672;50.250;8.312;2022-11-11T10:39:01;100418.69;;;17.45;56.71
27144;BME280;14672;50.250;8.312;2022-11-11T10:41:45;100416.16;;;17.25;57.14
27144;BME280;14672;50.250;8.312;2022-11-11T10:44:26;100417.31;;;17.80;56.07
27144;BME280;14672;50.250;8.312;2022-11-11T10:47:08;100412.50;;;18.08;55.01
27144;BME280;14672;50.250;8.312;2022-11-11T10:49:41;100408.91;;;18.26;54.71
27144;BME280;14672;50.250;8.312;2022-11-11T10:52:15;100408.63;;;18.51;54.36
27144;BME280;14672;50.250;8.312;2022-11-11T10:55:03;100409.38;;;18.73;53.86
27144;BME280;14672;50.250;8.312;2022-11-11T11:00:19;100400.59;;;19.04;52.85
27144;BME280;14672;50.250;8.312;2022-11-11T11:02:58;100395.47;;;18.90;52.65
27144;BME280;14672;50.250;8.312;2022-11-11T11:05:51;100395.31;;;18.94;52.31
27144;BME280;14672;50.250;8.312;2022-11-11T11:08:41;100395.59;;;19.32;51.53
27144;BME280;14672;50.250;8.312;2022-11-11T11:11:28;100389.81;;;19.59;51.33
27144;BME280;14672;50.250;8.312;2022-11-11T11:14:02;100388.66;;;19.75;50.93
27144;BME280;14672;50.250;8.312;2022-11-11T11:16:38;100389.16;;;19.74;51.19
27144;BME280;14672;50.250;8.312;2022-11-11T11:19:21;100385.22;;;19.95;50.38
27144;BME280;14672;50.250;8.312;2022-11-11T11:21:56;100387.50;;;20.24;49.45
27144;BME280;14672;50.250;8.312;2022-11-11T11:24:31;100383.31;;;20.57;49.09
27144;BME280;14672;50.250;8.312;2022-11-11T11:27:04;100376.28;;;20.97;48.50
27144;BME280;14672;50.250;8.312;2022-11-11T11:29:37;100381.56;;;21.37;47.49
27144;BME280;14672;50.250;8.312;2022-11-11T11:32:26;100379.78;;;21.69;47.11
27144;BME280;14672;50.250;8.312;2022-11-11T11:34:54;100385.56;;;21.83;45.98
27144;BME280;14672;50.250;8.312;2022-11-11T11:37:23;100376.19;;;21.88;45.92
27144;BME280;14672;50.250;8.312;2022-11-11T11:40:04;100365.09;;;21.87;45.82
27144;BME280;14672;50.250;8.312;2022-11-11T11:42:36;100359.53;;;21.98;45.77
27144;BME280;14672;50.250;8.312;2022-11-11T11:45:21;100357.44;;;21.84;45.30
27144;BME280;14672;50.250;8.312;2022-11-11T11:56:55;100353.22;;;21.12;46.68
27144;BME280;14672;50.250;8.312;2022-11-11T11:59:38;100351.66;;;21.54;45.87
27144;BME280;14672;50.250;8.312;2022-11-11T12:05:33;100344.69;;;21.32;46.21
27144;BME280;14672;50.250;8.312;2022-11-11T12:11:12;100347.88;;;21.48;46.31
27144;BME280;14672;50.250;8.312;2022-11-11T12:16:49;100340.44;;;22.06;44.92
27144;BME280;14672;50.250;8.312;2022-11-11T12:22:35;100333.72;;;22.29;44.68
27144;BME280;14672;50.250;8.312;2022-11-11T12:25:36;100337.75;;;22.37;44.52
27144;BME280;14672;50.250;8.312;2022-11-11T12:36:35;100337.03;;;22.63;43.67
27144;BME280;14672;50.250;8.312;2022-11-11T13:16:41;100336.25;;;22.07;44.55
27144;BME280;14672;50.250;8.312;2022-11-11T13:22:32;100328.31;;;22.22;44.54
27144;BME280;14672;50.250;8.312;2022-11-11T13:25:03;100334.19;;;21.78;44.91
27144;BME280;14672;50.250;8.312;2022-11-11T13:27:48;100343.19;;;21.66;45.40
27144;BME280;14672;50.250;8.312;2022-11-11T13:30:43;100351.66;;;21.54;45.31
27144;BME280;14672;50.250;8.312;2022-11-11T13:33:20;100357.66;;;21.66;45.34
27144;BME280;14672;50.250;8.312;2022-11-11T13:35:51;100357.06;;;21.62;45.24
27144;BME280;14672;50.250;8.312;2022-11-11T13:41:06;100357.81;;;21.62;45.61
27144;BME280;14672;50.250;8.312;2022-11-11T13:43:44;100355.44;;;21.61;45.64
27144;BME280;14672;50.250;8.312;2022-11-11T13:46:43;100351.28;;;21.62;45.21
27144;BME280;14672;50.250;8.312;2022-11-11T13:52:03;100352.13;;;21.82;44.66
27144;BME280;14672;50.250;8.312;2022-11-11T13:57:21;100362.72;;;21.85;44.95
27144;BME280;14672;50.250;8.312;2022-11-11T14:02:43;100354.81;;;21.86;45.01
27144;BME280;14672;50.250;8.312;2022-11-11T14:15:50;100366.47;;;21.18;45.30
27144;BME280;14672;50.250;8.312;2022-11-11T14:20:49;100348.38;;;21.32;45.46
27144;BME280;14672;50.250;8.312;2022-11-11T14:28:53;100345.75;;;21.20;45.93
27144;BME280;14672;50.250;8.312;2022-11-11T14:39:45;100356.41;;;20.51;47.18
27144;BME280;14672;50.250;8.312;2022-11-11T14:45:01;100353.59;;;20.09;47.90
27144;BME280;14672;50.250;8.312;2022-11-11T14:47:39;100354.19;;;19.81;48.23
27144;BME280;14672;50.250;8.312;2022-11-11T14:50:45;100355.25;;;19.32;49.03
27144;BME280;14672;50.250;8.312;2022-11-11T14:53:18;100357.38;;;19.13;49.23
27144;BME280;14672;50.250;8.312;2022-11-11T14:55:51;100357.50;;;18.55;50.32
27144;BME280;14672;50.250;8.312;2022-11-11T14:58:25;100351.38;;;18.44;50.21
27144;BME280;14672;50.250;8.312;2022-11-11T15:01:15;100354.81;;;18.03;51.69
27144;BME280;14672;50.250;8.312;2022-11-11T15:03:48;100355.31;;;17.70;52.07
27144;BME280;14672;50.250;8.312;2022-11-11T15:11:55;100349.69;;;17.14;53.91
27144;BME280;14672;50.250;8.312;2022-11-11T15:14:52;100353.50;;;16.89;54.23
27144;BME280;14672;50.250;8.312;2022-11-11T15:20:35;100343.53;;;16.47;55.63
27144;BME280;14672;50.250;8.312;2022-11-11T15:23:26;100340.56;;;16.38;55.96
27144;BME280;14672;50.250;8.312;2022-11-11T15:29:28;100339.59;;;16.07;57.33
27144;BME280;14672;50.250;8.312;2022-11-11T15:32:37;100344.41;;;15.97;57.43
27144;BME280;14672;50.250;8.312;2022-11-11T15:35:29;100342.94;;;15.92;57.74
27144;BME280;14672;50.250;8.312;2022-11-11T15:37:59;100342.25;;;15.63;58.53
27144;BME280;14672;50.250;8.312;2022-11-11T15:40:53;100344.50;;;15.43;58.77
27144;BME280;14672;50.250;8.312;2022-11-11T15:43:26;100341.00;;;15.52;58.47
27144;BME280;14672;50.250;8.312;2022-11-11T15:45:59;100344.63;;;15.39;58.77
27144;BME280;14672;50.250;8.312;2022-11-11T15:48:37;100344.38;;;15.34;58.94
27144;BME280;14672;50.250;8.312;2022-11-11T15:51:29;100349.97;;;15.25;59.30
27144;BME280;14672;50.250;8.312;2022-11-11T15:56:40;100353.19;;;15.27;59.11
27144;BME280;14672;50.250;8.312;2022-11-11T15:59:35;100349.41;;;15.30;58.99